Terminal Aerodrome Forecast
Issued by NWS

Home | Current Version | Previous Version | Text Only | Print | Product List | Glossary Off
Versions: 1 2 3 4 5 6 7 8 9 10 11 12 13 14 15 16 17

000
FTUS43 KMPX 281948 AAA
TAFRNH
TAF AMD
KRNH 281948Z 2820/2918 26012G22KT P6SM VCSH BKN050 OVC090
     FM290000 28010KT P6SM VCSH BKN050
     FM290400 28005KT P6SM SCT100
     FM291100 29007KT P6SM BKN030
     FM291400 28014G21KT P6SM OVC015=

USA.gov is the U.S. government's official web portal to all federal, state and local government web resources and services.